createdAt,value
2018-02-22T00:01:07.706Z,28.98
2018-02-22T00:03:35.224Z,33.78
2018-02-22T00:06:02.727Z,29.77
2018-02-22T00:08:30.221Z,30.17
2018-02-22T00:10:57.735Z,33.30
2018-02-22T00:13:25.217Z,36.38
2018-02-22T00:15:52.731Z,32.40
2018-02-22T00:18:20.231Z,34.17
2018-02-22T00:20:47.723Z,35.30
2018-02-22T00:23:15.230Z,32.75
2018-02-22T00:25:42.707Z,32.83
2018-02-22T00:28:10.200Z,27.62
2018-02-22T00:30:37.680Z,29.33
2018-02-22T00:33:05.176Z,31.52
2018-02-22T00:35:32.692Z,32.67
2018-02-22T00:38:00.194Z,32.35
2018-02-22T00:40:27.687Z,29.42
2018-02-22T00:42:55.179Z,30.02
2018-02-22T00:45:22.663Z,30.08
2018-02-22T00:47:50.160Z,29.42
2018-02-22T00:50:17.647Z,30.73
2018-02-22T00:52:45.156Z,28.75
2018-02-22T00:55:12.644Z,32.97
2018-02-22T00:57:40.127Z,31.42
2018-02-22T01:00:07.614Z,31.52
2018-02-22T01:02:35.108Z,33.40
2018-02-22T01:05:02.599Z,34.00
2018-02-22T01:07:30.087Z,35.20
2018-02-22T01:09:57.587Z,34.03
2018-02-22T01:12:25.085Z,33.35
2018-02-22T01:14:52.559Z,32.03
2018-02-22T01:17:20.051Z,34.92
2018-02-22T01:19:47.544Z,35.03
2018-02-22T01:22:15.040Z,36.17
2018-02-22T01:24:42.529Z,34.38
2018-02-22T01:27:10.032Z,33.45
2018-02-22T01:29:37.506Z,31.83
2018-02-22T01:32:05.024Z,33.58
2018-02-22T01:34:32.508Z,31.12
2018-02-22T01:37:00.023Z,33.72
2018-02-22T01:39:27.506Z,31.42
2018-02-22T01:41:54.999Z,29.90
2018-02-22T01:44:22.491Z,28.55
2018-02-22T01:46:49.976Z,30.42
2018-02-22T01:49:17.472Z,34.78
2018-02-22T01:51:44.967Z,31.12
2018-02-22T01:54:12.494Z,33.65
2018-02-22T01:56:39.984Z,34.72
2018-02-22T01:59:07.463Z,34.70
2018-02-22T02:01:34.960Z,32.97
2018-02-22T02:04:02.458Z,33.17
2018-02-22T02:06:29.947Z,35.08
2018-02-22T02:08:57.435Z,36.17
2018-02-22T02:11:24.933Z,34.47
2018-02-22T02:13:52.431Z,36.35
2018-02-22T02:16:19.950Z,34.50
2018-02-22T02:18:47.431Z,35.30
2018-02-22T02:21:14.927Z,39.75
2018-02-22T02:23:42.427Z,34.60
2018-02-22T02:26:09.916Z,32.83
2018-02-22T02:28:37.404Z,35.97
2018-02-22T02:31:04.898Z,35.38
2018-02-22T02:33:32.492Z,35.58
2018-02-22T02:35:59.980Z,35.83
2018-02-22T02:38:27.473Z,36.13
2018-02-22T02:40:54.971Z,36.55
2018-02-22T02:43:22.473Z,32.50
2018-02-22T02:45:49.960Z,33.35
2018-02-22T02:48:17.452Z,35.35
2018-02-22T02:50:44.931Z,33.15
2018-02-22T02:53:12.436Z,33.92
2018-02-22T02:55:39.922Z,35.97
2018-02-22T02:58:07.419Z,32.08
2018-02-22T03:00:34.896Z,37.20
2018-02-22T03:03:02.393Z,35.60
2018-02-22T03:05:29.879Z,36.53
2018-02-22T03:07:57.373Z,32.50
2018-02-22T03:10:24.867Z,37.13
2018-02-22T03:12:52.379Z,36.78
2018-02-22T03:15:19.876Z,35.80
2018-02-22T03:17:47.362Z,35.67
2018-02-22T03:20:14.858Z,33.63
2018-02-22T03:22:42.354Z,30.58
2018-02-22T03:25:09.858Z,38.92
2018-02-22T03:27:37.339Z,32.17
2018-02-22T03:30:04.837Z,30.73
2018-02-22T03:32:32.353Z,34.22
2018-02-22T03:34:59.847Z,34.05
2018-02-22T03:37:27.324Z,34.38
2018-02-22T03:39:54.819Z,30.58
2018-02-22T03:42:22.326Z,31.58
2018-02-22T03:44:49.820Z,32.85
2018-02-22T03:47:17.306Z,27.85
2018-02-22T03:49:44.799Z,30.58
2018-02-22T03:52:12.297Z,29.27
2018-02-22T03:54:39.783Z,27.52
2018-02-22T03:57:07.270Z,29.92
2018-02-22T04:02:04.806Z,30.40
2018-02-22T04:04:32.287Z,28.75
2018-02-22T04:06:59.788Z,27.77
2018-02-22T04:09:27.283Z,30.45
2018-02-22T04:11:54.785Z,27.98
2018-02-22T04:14:22.290Z,25.55
2018-02-22T04:16:49.734Z,26.80
2018-02-22T04:19:17.271Z,27.60
2018-02-22T04:21:44.764Z,26.92
2018-02-22T04:24:12.258Z,27.27
2018-02-22T04:26:39.751Z,26.12
2018-02-22T04:29:07.267Z,31.58
2018-02-22T04:31:34.747Z,29.25
2018-02-22T04:34:02.234Z,28.23
2018-02-22T04:36:29.744Z,29.25
2018-02-22T04:38:57.231Z,30.45
2018-02-22T04:41:24.758Z,28.52
2018-02-22T04:43:52.280Z,32.88
2018-02-22T04:46:19.743Z,28.27
2018-02-22T04:48:47.239Z,30.35
2018-02-22T04:51:14.746Z,30.05
2018-02-22T04:53:42.227Z,32.75
2018-02-22T04:56:09.739Z,30.77
2018-02-22T04:58:37.259Z,29.27
2018-02-22T05:01:04.718Z,29.17
2018-02-22T05:03:32.259Z,32.60
2018-02-22T05:05:59.751Z,30.05
2018-02-22T05:08:27.267Z,31.20
2018-02-22T05:10:54.763Z,24.98
2018-02-22T05:13:22.266Z,24.65
2018-02-22T05:15:49.747Z,26.17
2018-02-22T05:18:17.236Z,26.05
2018-02-22T05:20:44.743Z,26.42
2018-02-22T05:23:12.220Z,28.00
2018-02-22T05:25:39.720Z,20.67
2018-02-22T05:28:07.227Z,19.35
2018-02-22T05:30:34.716Z,16.27
2018-02-22T05:33:02.211Z,15.70
2018-02-22T05:35:29.708Z,14.15
2018-02-22T05:37:57.194Z,15.07
2018-02-22T05:40:24.689Z,15.25
2018-02-22T05:42:52.188Z,16.37
2018-02-22T05:45:19.667Z,13.62
2018-02-22T05:47:47.180Z,12.60
2018-02-22T05:50:14.663Z,14.52
2018-02-22T05:52:42.143Z,14.32
2018-02-22T05:55:09.639Z,14.43
2018-02-22T05:57:37.118Z,12.32
2018-02-22T06:00:04.620Z,14.73
2018-02-22T06:02:32.118Z,14.93
2018-02-22T06:04:59.607Z,13.20
2018-02-22T06:07:27.082Z,12.98
2018-02-22T06:09:54.545Z,14.85
2018-02-22T06:12:22.061Z,13.27
2018-02-22T06:14:49.565Z,14.32
2018-02-22T06:17:17.056Z,12.55
2018-02-22T06:19:44.547Z,12.50
2018-02-22T06:22:12.038Z,13.90
2018-02-22T06:24:39.551Z,11.90
2018-02-22T06:27:07.059Z,14.30
2018-02-22T06:29:34.508Z,14.32
2018-02-22T06:32:02.046Z,15.70
2018-02-22T06:34:29.548Z,13.10
2018-02-22T06:36:57.023Z,14.68
2018-02-22T06:39:24.511Z,15.07
2018-02-22T06:41:52.003Z,13.98
2018-02-22T06:44:19.514Z,17.35
2018-02-22T06:46:47.039Z,12.77
2018-02-22T06:49:14.509Z,14.65
2018-02-22T06:51:42.003Z,13.35
2018-02-22T06:54:09.506Z,12.93
2018-02-22T06:56:36.999Z,14.07
2018-02-22T06:59:04.476Z,12.10
2018-02-22T07:01:31.966Z,14.15
2018-02-22T07:03:59.481Z,11.70
2018-02-22T07:06:26.961Z,12.70
2018-02-22T07:08:54.441Z,14.90
2018-02-22T07:11:21.946Z,14.45
2018-02-22T07:13:49.452Z,16.52
2018-02-22T07:16:16.983Z,14.70
2018-02-22T07:18:44.489Z,16.17
2018-02-22T07:21:12.001Z,16.52
2018-02-22T07:23:39.503Z,23.25
2018-02-22T07:26:07.011Z,22.20
2018-02-22T07:28:34.524Z,40.47
2018-02-22T07:31:02.033Z,45.45
2018-02-22T07:33:29.575Z,46.30
2018-02-22T07:35:57.086Z,42.85
2018-02-22T07:38:24.577Z,30.77
2018-02-22T07:40:52.066Z,23.08
2018-02-22T07:43:19.556Z,20.58
2018-02-22T07:45:47.051Z,18.25
2018-02-22T07:48:14.542Z,16.62
2018-02-22T07:50:42.035Z,15.00
2018-02-22T07:53:09.523Z,13.18
2018-02-22T07:55:37.021Z,11.50
2018-02-22T07:58:04.536Z,15.40
2018-02-22T08:00:32.031Z,16.50
2018-02-22T08:02:59.521Z,14.50
2018-02-22T08:05:27.032Z,15.50
2018-02-22T08:07:54.537Z,13.07
2018-02-22T08:10:22.029Z,12.48
2018-02-22T08:12:49.547Z,13.32
2018-02-22T08:15:17.046Z,12.68
2018-02-22T08:17:44.600Z,13.02
2018-02-22T08:20:12.090Z,14.80
2018-02-22T08:22:39.587Z,13.32
2018-02-22T08:25:07.080Z,13.90
2018-02-22T08:27:34.563Z,16.05
2018-02-22T08:30:02.051Z,17.33
2018-02-22T08:32:29.534Z,25.45
2018-02-22T08:34:57.043Z,16.08
2018-02-22T08:37:24.527Z,15.60
2018-02-22T08:39:52.038Z,17.02
2018-02-22T08:42:19.552Z,20.27
2018-02-22T08:44:47.062Z,19.52
2018-02-22T08:47:14.580Z,19.12
2018-02-22T08:49:42.059Z,18.37
2018-02-22T08:52:09.555Z,16.73
2018-02-22T08:54:37.046Z,20.42
2018-02-22T08:57:04.536Z,19.92
2018-02-22T08:59:34.096Z,18.40
2018-02-22T09:02:01.585Z,22.90
2018-02-22T09:04:29.082Z,17.42
2018-02-22T09:06:56.571Z,17.48
2018-02-22T09:09:24.059Z,16.58
2018-02-22T09:11:51.555Z,19.27
2018-02-22T09:14:19.043Z,16.85
2018-02-22T09:16:46.529Z,21.73
2018-02-22T09:19:14.038Z,16.83
2018-02-22T09:21:41.534Z,16.62
2018-02-22T09:24:09.075Z,17.00
2018-02-22T09:26:36.643Z,17.62
2018-02-22T09:29:04.229Z,18.00
2018-02-22T09:31:31.732Z,17.10
2018-02-22T09:33:59.225Z,18.45
2018-02-22T09:36:26.721Z,17.30
2018-02-22T09:38:54.239Z,18.15
2018-02-22T09:41:21.735Z,16.33
2018-02-22T09:43:49.318Z,17.10
2018-02-22T09:46:16.814Z,17.45
2018-02-22T09:48:44.340Z,16.17
2018-02-22T09:51:11.867Z,18.30
2018-02-22T09:53:39.360Z,16.95
2018-02-22T09:56:06.851Z,17.52
2018-02-22T09:58:34.359Z,17.27
2018-02-22T10:01:01.860Z,19.65
2018-02-22T10:03:29.360Z,18.85
2018-02-22T10:05:56.867Z,18.95
2018-02-22T10:08:24.388Z,16.48
2018-02-22T10:10:51.910Z,16.62
2018-02-22T10:13:19.546Z,15.93
2018-02-22T10:15:47.120Z,18.52
2018-02-22T10:18:14.685Z,19.73
2018-02-22T10:20:42.193Z,25.58
2018-02-22T10:23:09.695Z,26.05
2018-02-22T10:25:37.182Z,23.10
2018-02-22T10:28:04.813Z,27.45
2018-02-22T10:30:32.328Z,23.95
2018-02-22T10:32:59.861Z,28.85
2018-02-22T10:35:27.394Z,26.33
2018-02-22T10:37:54.886Z,29.80
2018-02-22T10:40:22.428Z,27.13
2018-02-22T10:42:49.983Z,29.67
2018-02-22T10:45:17.463Z,30.45
2018-02-22T10:47:44.958Z,35.85
2018-02-22T10:50:12.457Z,29.98
2018-02-22T10:52:39.969Z,26.98
2018-02-22T10:55:07.472Z,27.40
2018-02-22T10:57:34.977Z,27.58
2018-02-22T11:00:02.493Z,26.80
2018-02-22T11:02:35.611Z,28.10
2018-02-22T11:05:03.111Z,34.78
2018-02-22T11:07:30.629Z,30.02
2018-02-22T11:09:58.150Z,33.83
2018-02-22T11:12:25.723Z,31.80
2018-02-22T11:14:53.235Z,33.95
2018-02-22T11:17:20.756Z,36.65
2018-02-22T11:19:48.277Z,39.25
2018-02-22T11:22:15.811Z,37.13
2018-02-22T11:24:43.299Z,39.03
2018-02-22T11:27:10.877Z,36.55
2018-02-22T11:29:38.379Z,40.00
2018-02-22T11:32:05.903Z,34.58
2018-02-22T11:34:33.400Z,36.38
2018-02-22T11:37:00.889Z,33.50
2018-02-22T11:39:28.433Z,31.48
2018-02-22T11:41:55.932Z,30.10
2018-02-22T11:44:23.452Z,29.05
2018-02-22T11:46:50.935Z,31.80
2018-02-22T11:49:18.504Z,29.70
2018-02-22T11:51:46.006Z,30.12
2018-02-22T11:54:13.516Z,31.23
2018-02-22T11:56:41.008Z,31.62
2018-02-22T11:59:08.558Z,36.15
2018-02-22T12:01:36.064Z,30.90
2018-02-22T12:04:03.594Z,33.42
2018-02-22T12:06:31.104Z,37.92
2018-02-22T12:08:58.740Z,34.58
2018-02-22T12:11:26.280Z,33.97
2018-02-22T12:13:53.828Z,33.72
2018-02-22T12:16:21.348Z,31.05
2018-02-22T12:18:48.820Z,33.03
2018-02-22T12:21:16.335Z,32.05
2018-02-22T12:23:43.830Z,36.60
2018-02-22T12:26:11.328Z,27.65
2018-02-22T12:28:39.394Z,28.90
2018-02-22T12:31:06.904Z,32.70
2018-02-22T12:33:34.419Z,28.65
2018-02-22T12:36:01.926Z,30.62
2018-02-22T12:38:29.418Z,28.38
2018-02-22T12:40:56.926Z,27.67
2018-02-22T12:43:24.426Z,24.67
2018-02-22T12:45:51.930Z,21.95
2018-02-22T12:48:19.428Z,23.02
2018-02-22T12:50:46.971Z,17.35
2018-02-22T12:53:14.479Z,19.83
2018-02-22T12:55:42.029Z,19.15
2018-02-22T12:58:09.528Z,19.62
2018-02-22T13:00:37.019Z,19.17
2018-02-22T13:03:04.549Z,20.23
2018-02-22T13:05:32.064Z,19.20
2018-02-22T13:07:59.565Z,16.80
2018-02-22T13:10:27.051Z,18.95
2018-02-22T13:12:54.573Z,16.87
2018-02-22T13:15:22.093Z,16.92
2018-02-22T13:17:49.620Z,17.40
2018-02-22T13:20:17.124Z,19.98
2018-02-22T13:22:44.620Z,18.83
2018-02-22T13:25:12.137Z,16.52
2018-02-22T13:27:39.631Z,17.40
2018-02-22T13:30:07.139Z,21.92
2018-02-22T13:32:46.265Z,19.60
2018-02-22T13:35:13.746Z,16.67
2018-02-22T13:40:51.446Z,22.62
2018-02-22T13:43:18.955Z,18.55
2018-02-22T13:45:46.476Z,17.08
2018-02-22T13:48:13.971Z,18.27
2018-02-22T13:50:53.236Z,17.70
2018-02-22T13:53:20.732Z,21.33
2018-02-22T13:55:48.239Z,22.42
2018-02-22T13:58:15.734Z,22.08
2018-02-22T14:00:54.924Z,20.37
2018-02-22T14:03:22.436Z,21.15
2018-02-22T14:05:49.925Z,22.17
2018-02-22T14:08:29.057Z,24.73
2018-02-22T14:11:03.447Z,25.80
2018-02-22T14:13:30.947Z,26.50
2018-02-22T14:15:58.532Z,25.90
2018-02-22T14:18:26.073Z,27.20
2018-02-22T14:20:53.580Z,22.37
2018-02-22T14:23:21.082Z,20.37
2018-02-22T14:25:48.595Z,17.40
2018-02-22T14:28:16.126Z,18.58
2018-02-22T14:30:43.628Z,18.45
2018-02-22T14:33:11.132Z,17.70
2018-02-22T14:35:38.638Z,22.25
2018-02-22T14:38:06.148Z,24.23
2018-02-22T14:40:33.681Z,22.45
2018-02-22T14:43:01.190Z,20.48
2018-02-22T14:45:28.723Z,23.52
2018-02-22T14:47:56.184Z,22.25
2018-02-22T14:50:23.676Z,19.08
2018-02-22T14:52:51.343Z,21.52
2018-02-22T14:55:18.844Z,20.42
2018-02-22T14:57:46.355Z,23.33
2018-02-22T15:00:13.877Z,26.08
2018-02-22T15:02:41.378Z,24.67
2018-02-22T15:05:08.871Z,25.70
2018-02-22T15:07:36.389Z,22.52
2018-02-22T15:10:03.896Z,22.80
2018-02-22T15:12:31.403Z,23.02
2018-02-22T15:14:58.896Z,20.20
2018-02-22T15:17:26.446Z,22.30
2018-02-22T15:19:54.067Z,21.42
2018-02-22T15:22:21.575Z,23.40
2018-02-22T15:24:49.915Z,22.08
2018-02-22T15:27:18.207Z,25.77
2018-02-22T15:29:45.702Z,23.02
2018-02-22T15:32:13.219Z,24.75
2018-02-22T15:34:40.715Z,21.48
2018-02-22T15:37:08.226Z,25.17
2018-02-22T15:39:35.734Z,24.35
2018-02-22T15:42:03.227Z,24.65
2018-02-22T15:44:30.727Z,26.20
2018-02-22T15:46:58.226Z,23.38
2018-02-22T15:49:25.724Z,21.37
2018-02-22T15:51:53.223Z,22.35
2018-02-22T15:54:20.725Z,28.27
2018-02-22T15:56:48.227Z,24.95
2018-02-22T15:59:15.808Z,23.12
2018-02-22T16:01:43.299Z,28.70
2018-02-22T16:04:10.800Z,30.60
2018-02-22T16:06:38.298Z,27.45
2018-02-22T16:09:05.811Z,29.25
2018-02-22T16:11:33.309Z,29.87
2018-02-22T16:14:00.835Z,31.08
2018-02-22T16:16:28.373Z,30.10
2018-02-22T16:18:55.871Z,28.35
2018-02-22T16:21:23.383Z,26.48
2018-02-22T16:23:50.971Z,31.80
2018-02-22T16:26:18.569Z,26.95
2018-02-22T16:28:46.072Z,26.33
2018-02-22T16:31:13.572Z,26.70
2018-02-22T16:33:41.075Z,29.12
2018-02-22T16:36:08.596Z,23.95
2018-02-22T16:38:36.096Z,30.48
2018-02-22T16:41:03.620Z,27.27
2018-02-22T16:43:32.404Z,25.42
2018-02-22T16:45:59.899Z,26.45
2018-02-22T16:48:27.477Z,27.35
2018-02-22T16:50:54.976Z,24.63
2018-02-22T16:53:22.495Z,26.77
2018-02-22T16:55:49.996Z,25.75
2018-02-22T16:58:17.507Z,22.30
2018-02-22T17:00:45.083Z,23.62
2018-02-22T17:03:12.555Z,24.45
2018-02-22T17:05:40.071Z,23.38
2018-02-22T17:08:07.579Z,25.60
2018-02-22T17:10:35.084Z,23.70
2018-02-22T17:13:02.591Z,20.02
2018-02-22T17:15:30.148Z,26.17
2018-02-22T17:17:57.724Z,23.95
2018-02-22T17:20:25.227Z,28.52
2018-02-22T17:22:52.742Z,24.60
2018-02-22T17:25:19.702Z,24.55
2018-02-22T17:27:52.575Z,26.98
2018-02-22T17:30:25.581Z,38.03
2018-02-22T17:32:53.106Z,37.20
2018-02-22T17:35:23.398Z,37.83
2018-02-22T17:37:56.943Z,34.60
2018-02-22T17:40:28.824Z,31.83
2018-02-22T17:42:56.348Z,37.03
2018-02-22T17:45:23.863Z,27.65
2018-02-22T17:47:51.404Z,32.95
2018-02-22T17:50:18.911Z,33.78
2018-02-22T17:52:46.409Z,33.38
2018-02-22T17:55:13.917Z,34.80
2018-02-22T17:57:41.431Z,32.97
2018-02-22T18:00:08.936Z,37.83
2018-02-22T18:02:36.448Z,36.70
2018-02-22T18:05:03.980Z,35.05
2018-02-22T18:07:31.559Z,36.20
2018-02-22T18:09:59.158Z,38.33
2018-02-22T18:12:26.649Z,35.55
2018-02-22T18:14:54.155Z,39.83
2018-02-22T18:17:21.667Z,37.53
2018-02-22T18:19:49.179Z,43.05
2018-02-22T18:22:16.681Z,42.50
2018-02-22T18:24:44.207Z,43.33
2018-02-22T18:27:11.700Z,40.97
2018-02-22T18:29:39.203Z,42.53
2018-02-22T18:32:06.690Z,44.78
2018-02-22T18:34:34.181Z,46.42
2018-02-22T18:37:01.681Z,64.25
2018-02-22T18:39:29.179Z,61.65
2018-02-22T18:41:59.243Z,60.10
2018-02-22T18:44:32.139Z,56.42
2018-02-22T18:46:59.659Z,50.22
2018-02-22T18:49:27.162Z,46.45
2018-02-22T18:51:54.660Z,47.58
2018-02-22T18:54:22.162Z,49.20
2018-02-22T18:56:49.674Z,46.25
2018-02-22T18:59:17.158Z,50.90
2018-02-22T19:01:44.648Z,46.47
2018-02-22T19:04:12.127Z,49.22
2018-02-22T19:06:39.647Z,49.50
2018-02-22T19:09:07.158Z,55.70
2018-02-22T19:11:34.643Z,56.10
2018-02-22T19:14:02.308Z,52.28
2018-02-22T19:16:29.808Z,50.05
2018-02-22T19:18:57.303Z,44.22
2018-02-22T19:21:24.836Z,50.17
2018-02-22T19:23:52.341Z,51.17
2018-02-22T19:26:19.903Z,47.10
2018-02-22T19:28:47.428Z,47.85
2018-02-22T19:31:14.931Z,54.17
2018-02-22T19:33:42.440Z,53.33
2018-02-22T19:36:09.935Z,50.30
2018-02-22T19:38:37.427Z,51.55
2018-02-22T19:41:05.727Z,50.10
2018-02-22T19:43:33.230Z,54.78
2018-02-22T19:46:00.726Z,51.88
2018-02-22T19:48:28.219Z,52.88
2018-02-22T19:50:55.732Z,54.25
2018-02-22T19:53:23.228Z,52.62
2018-02-22T19:55:50.707Z,49.95
2018-02-22T19:58:18.227Z,53.05
2018-02-22T20:00:45.718Z,54.30
2018-02-22T20:03:13.247Z,60.20
2018-02-22T20:05:40.735Z,56.17
2018-02-22T20:08:08.241Z,59.55
2018-02-22T20:10:35.748Z,60.45
2018-02-22T20:13:03.246Z,58.30
2018-02-22T20:15:30.782Z,54.28
2018-02-22T20:17:58.306Z,56.30
2018-02-22T20:20:25.804Z,54.33
2018-02-22T20:22:53.335Z,64.25
2018-02-22T20:25:20.935Z,59.85
2018-02-22T20:27:48.458Z,64.32
2018-02-22T20:30:15.979Z,62.67
2018-02-22T20:32:43.487Z,67.03
2018-02-22T20:35:10.984Z,81.20
2018-02-22T20:37:38.530Z,86.65
2018-02-22T20:40:06.030Z,82.70
2018-02-22T20:42:33.523Z,89.62
2018-02-22T20:45:01.064Z,89.28
2018-02-22T20:47:28.587Z,88.53
2018-02-22T20:49:56.127Z,81.65
2018-02-22T20:52:30.036Z,81.47
2018-02-22T20:55:10.308Z,83.97
2018-02-22T20:57:37.894Z,84.13
2018-02-22T21:00:05.372Z,90.80
2018-02-22T21:02:33.017Z,86.20
2018-02-22T21:05:00.525Z,78.82
2018-02-22T21:07:28.023Z,76.57
2018-02-22T21:09:55.592Z,65.80
2018-02-22T21:12:23.096Z,64.57
2018-02-22T21:14:50.578Z,76.22
2018-02-22T21:17:18.069Z,79.22
2018-02-22T21:19:45.563Z,75.20
2018-02-22T21:22:13.083Z,74.07
2018-02-22T21:24:40.579Z,76.10
2018-02-22T21:27:08.067Z,71.95
2018-02-22T21:29:35.557Z,69.90
2018-02-22T21:32:03.047Z,63.42
2018-02-22T21:34:30.538Z,70.37
2018-02-22T21:36:58.019Z,71.53
2018-02-22T21:39:25.580Z,63.85
2018-02-22T21:41:53.059Z,63.42
2018-02-22T21:44:20.572Z,67.25
2018-02-22T21:46:48.053Z,64.43
2018-02-22T21:49:15.531Z,66.57
2018-02-22T21:51:43.016Z,73.65
2018-02-22T21:54:10.531Z,68.25
2018-02-22T21:56:38.036Z,71.32
2018-02-22T21:59:05.527Z,67.40
2018-02-22T22:01:33.031Z,70.05
2018-02-22T22:04:00.546Z,66.82
2018-02-22T22:06:28.043Z,72.87
2018-02-22T22:08:55.523Z,75.70
2018-02-22T22:11:23.022Z,67.62
2018-02-22T22:13:50.503Z,70.15
2018-02-22T22:16:18.017Z,71.78
2018-02-22T22:18:45.510Z,62.08
2018-02-22T22:21:12.987Z,67.50
2018-02-22T22:23:40.509Z,65.37
2018-02-22T22:26:08.027Z,57.60
2018-02-22T22:28:35.518Z,64.15
2018-02-22T22:31:03.011Z,61.28
2018-02-22T22:33:30.497Z,60.20
2018-02-22T22:35:57.990Z,58.40
2018-02-22T22:38:25.536Z,62.17
2018-02-22T22:40:53.071Z,55.75
2018-02-22T22:43:20.567Z,64.12
2018-02-22T22:45:48.058Z,60.08
2018-02-22T22:48:15.555Z,60.12
2018-02-22T22:50:43.051Z,66.97
2018-02-22T22:53:10.556Z,63.40
2018-02-22T22:55:38.043Z,64.87
2018-02-22T22:58:05.548Z,64.72
2018-02-22T23:00:33.039Z,67.85
2018-02-22T23:03:00.543Z,66.90
2018-02-22T23:05:28.040Z,67.70
2018-02-22T23:07:55.548Z,65.60
2018-02-22T23:10:23.051Z,71.12
2018-02-22T23:12:50.589Z,64.72
2018-02-22T23:15:18.079Z,62.38
2018-02-22T23:17:45.572Z,63.92
2018-02-22T23:20:13.068Z,61.88
2018-02-22T23:22:40.563Z,59.35
2018-02-22T23:25:08.075Z,58.80
2018-02-22T23:27:35.557Z,58.28
2018-02-22T23:30:03.055Z,55.28
2018-02-22T23:32:30.556Z,59.45
2018-02-22T23:34:58.055Z,53.25
2018-02-22T23:37:25.591Z,54.33
2018-02-22T23:39:53.111Z,52.15
2018-02-22T23:42:26.079Z,54.40
2018-02-22T23:44:53.555Z,56.63
2018-02-22T23:47:21.059Z,47.22
2018-02-22T23:49:48.571Z,51.05
2018-02-22T23:52:16.069Z,53.08
2018-02-22T23:54:43.587Z,52.30
2018-02-22T23:57:11.064Z,57.00
2018-02-22T23:59:38.560Z,56.37
